createdAt,value
2023-03-06T00:01:18.727Z,59.82
2023-03-06T00:03:54.059Z,59.29
2023-03-06T00:06:27.965Z,59.63
2023-03-06T00:08:59.065Z,59.78
2023-03-06T00:11:35.509Z,59.59
2023-03-06T00:14:07.189Z,59.70
2023-03-06T00:16:33.839Z,59.40
2023-03-06T00:19:08.783Z,59.71
2023-03-06T00:21:41.033Z,59.49
2023-03-06T00:24:07.625Z,59.55
2023-03-06T00:26:35.618Z,59.64
2023-03-06T00:29:02.493Z,59.33
2023-03-06T00:31:29.090Z,59.16
2023-03-06T00:33:55.390Z,59.82
2023-03-06T00:36:21.648Z,59.98
2023-03-06T00:38:47.915Z,59.66
2023-03-06T00:41:14.246Z,59.30
2023-03-06T00:43:40.605Z,59.54
2023-03-06T00:46:07.022Z,59.92
2023-03-06T00:48:33.965Z,59.58
2023-03-06T00:51:00.334Z,59.43
2023-03-06T00:53:26.748Z,59.92
2023-03-06T00:55:53.091Z,59.45
2023-03-06T00:58:19.476Z,59.96
2023-03-06T01:00:45.972Z,59.74
2023-03-06T01:03:12.687Z,59.78
2023-03-06T01:05:40.062Z,59.79
2023-03-06T01:08:06.428Z,59.40
2023-03-06T01:10:32.784Z,59.35
2023-03-06T01:12:59.193Z,59.83
2023-03-06T01:15:25.615Z,59.98
2023-03-06T01:17:54.324Z,59.69
2023-03-06T01:20:21.219Z,59.54
2023-03-06T01:22:47.571Z,60.28
2023-03-06T01:25:13.924Z,60.12
2023-03-06T01:27:40.200Z,60.00
2023-03-06T01:30:07.131Z,60.09
2023-03-06T01:32:33.710Z,60.48
2023-03-06T01:35:00.045Z,59.80
2023-03-06T01:37:26.389Z,59.67
2023-03-06T01:39:52.741Z,60.08
2023-03-06T01:42:18.990Z,60.13
2023-03-06T01:45:04.418Z,60.16
2023-03-06T01:47:30.895Z,60.22
2023-03-06T01:49:58.867Z,60.12
2023-03-06T01:52:32.869Z,59.76
2023-03-06T01:55:21.387Z,60.22
2023-03-06T01:57:55.145Z,60.42
2023-03-06T02:00:27.200Z,60.17
2023-03-06T02:03:00.755Z,60.27
2023-03-06T02:05:26.998Z,60.41
2023-03-06T02:07:54.136Z,60.00
2023-03-06T02:10:21.093Z,60.18
2023-03-06T02:12:49.290Z,60.04
2023-03-06T02:15:18.654Z,60.27
2023-03-06T02:17:47.143Z,60.73
2023-03-06T02:20:25.451Z,60.54
2023-03-06T02:23:06.780Z,60.61
2023-03-06T02:25:40.817Z,60.59
2023-03-06T02:28:11.136Z,60.91
2023-03-06T02:30:37.930Z,60.72
2023-03-06T02:33:05.203Z,61.11
2023-03-06T02:35:35.951Z,60.97
2023-03-06T02:38:13.296Z,60.72
2023-03-06T02:40:43.371Z,61.70
2023-03-06T02:43:12.281Z,62.02
2023-03-06T02:45:45.511Z,62.59
2023-03-06T02:48:13.190Z,62.69
2023-03-06T02:50:40.698Z,63.12
2023-03-06T02:53:07.845Z,63.44
2023-03-06T02:55:34.725Z,63.50
2023-03-06T02:58:01.183Z,63.04
2023-03-06T03:00:28.139Z,63.28
2023-03-06T03:02:54.626Z,62.96
2023-03-06T03:05:21.271Z,63.41
2023-03-06T03:07:47.583Z,63.46
2023-03-06T03:10:13.991Z,63.86
2023-03-06T03:12:41.179Z,63.96
2023-03-06T03:15:07.720Z,64.24
2023-03-06T03:17:38.770Z,63.97
2023-03-06T03:20:08.124Z,64.79
2023-03-06T03:22:34.453Z,64.66
2023-03-06T03:25:00.863Z,64.83
2023-03-06T03:27:27.214Z,64.60
2023-03-06T03:29:53.529Z,64.46
2023-03-06T03:32:19.825Z,64.92
2023-03-06T03:34:46.273Z,64.95
2023-03-06T03:37:12.540Z,64.17
2023-03-06T03:39:38.796Z,64.38
2023-03-06T03:42:06.118Z,64.53
2023-03-06T03:44:32.403Z,65.06
2023-03-06T03:46:58.717Z,64.33
2023-03-06T03:49:25.156Z,64.25
2023-03-06T03:51:51.576Z,64.94
2023-03-06T03:54:17.970Z,64.89
2023-03-06T03:56:45.005Z,65.26
2023-03-06T03:59:11.514Z,64.64
2023-03-06T04:01:39.701Z,64.52
2023-03-06T04:04:06.199Z,65.21
2023-03-06T04:06:32.558Z,65.33
2023-03-06T04:08:58.886Z,64.98
2023-03-06T04:11:25.251Z,64.88
2023-03-06T04:13:51.548Z,64.77
2023-03-06T04:16:17.871Z,64.94
2023-03-06T04:18:44.217Z,64.48
2023-03-06T04:21:10.499Z,64.54
2023-03-06T04:23:36.861Z,66.13
2023-03-06T04:26:03.666Z,65.24
2023-03-06T04:28:29.993Z,65.67
2023-03-06T04:30:56.362Z,65.60
2023-03-06T04:33:22.648Z,65.54
2023-03-06T04:35:49.060Z,65.75
2023-03-06T04:38:15.374Z,65.59
2023-03-06T04:40:44.501Z,65.49
2023-03-06T04:43:11.367Z,66.48
2023-03-06T04:45:37.749Z,66.33
2023-03-06T04:48:04.427Z,67.49
2023-03-06T04:50:33.984Z,68.13
2023-03-06T04:53:01.791Z,67.83
2023-03-06T04:55:28.452Z,67.89
2023-03-06T04:57:54.771Z,69.52
2023-03-06T05:00:23.679Z,69.18
2023-03-06T05:02:50.776Z,68.97
2023-03-06T05:05:18.238Z,68.84
2023-03-06T05:07:44.710Z,70.35
2023-03-06T05:10:13.789Z,69.90
2023-03-06T05:12:40.227Z,69.71
2023-03-06T05:15:08.063Z,70.20
2023-03-06T05:17:34.382Z,70.80
2023-03-06T05:20:00.835Z,70.77
2023-03-06T05:22:27.134Z,70.30
2023-03-06T05:24:53.482Z,70.86
2023-03-06T05:27:19.846Z,70.19
2023-03-06T05:29:46.142Z,70.38
2023-03-06T05:32:12.615Z,70.49
2023-03-06T05:34:39.693Z,70.46
2023-03-06T05:37:06.105Z,70.76
2023-03-06T05:39:32.430Z,70.83
2023-03-06T05:41:58.715Z,70.80
2023-03-06T05:44:25.494Z,70.49
2023-03-06T05:46:51.820Z,70.37
2023-03-06T05:49:18.146Z,70.28
2023-03-06T05:51:44.429Z,70.03
2023-03-06T05:54:10.958Z,69.72
2023-03-06T05:56:37.340Z,69.85
2023-03-06T05:59:03.674Z,69.89
2023-03-06T06:01:30.259Z,70.06
2023-03-06T06:03:56.609Z,69.80
2023-03-06T06:06:22.957Z,69.83
2023-03-06T06:08:49.301Z,69.55
2023-03-06T06:11:15.647Z,69.83
2023-03-06T06:13:41.959Z,69.78
2023-03-06T06:16:16.049Z,69.90
2023-03-06T06:18:43.379Z,69.81
2023-03-06T06:21:12.085Z,69.66
2023-03-06T06:23:38.360Z,69.90
2023-03-06T06:26:07.551Z,69.28
2023-03-06T06:28:34.688Z,69.79
2023-03-06T06:31:01.432Z,69.28
2023-03-06T06:33:27.791Z,69.89
2023-03-06T06:35:54.124Z,69.70
2023-03-06T06:38:20.481Z,69.31
2023-03-06T06:41:04.691Z,69.87
2023-03-06T06:43:32.946Z,69.03
2023-03-06T06:46:19.576Z,69.51
2023-03-06T06:48:47.645Z,69.57
2023-03-06T06:51:13.961Z,69.29
2023-03-06T06:53:40.268Z,69.06
2023-03-06T06:56:06.726Z,69.19
2023-03-06T06:58:33.051Z,69.63
2023-03-06T07:01:13.077Z,69.41
2023-03-06T07:03:40.477Z,68.88
2023-03-06T07:06:07.540Z,68.96
2023-03-06T07:08:34.704Z,68.93
2023-03-06T07:11:04.955Z,69.00
2023-03-06T07:13:31.237Z,68.36
2023-03-06T07:15:58.182Z,69.96
2023-03-06T07:18:24.488Z,68.91
2023-03-06T07:20:54.472Z,69.31
2023-03-06T07:23:21.025Z,69.38
2023-03-06T07:25:51.356Z,68.67
2023-03-06T07:28:19.355Z,69.19
2023-03-06T07:30:45.954Z,68.05
2023-03-06T07:33:12.573Z,67.98
2023-03-06T07:35:38.946Z,67.33
2023-03-06T07:38:05.241Z,65.69
2023-03-06T07:40:31.648Z,65.80
2023-03-06T07:43:12.945Z,65.40
2023-03-06T07:45:43.382Z,64.93
2023-03-06T07:48:09.913Z,65.77
2023-03-06T07:50:36.225Z,65.37
2023-03-06T07:53:02.518Z,65.83
2023-03-06T07:55:28.803Z,66.07
2023-03-06T07:57:55.127Z,66.54
2023-03-06T08:00:21.642Z,66.51
2023-03-06T08:02:49.474Z,67.32
2023-03-06T08:05:16.914Z,67.05
2023-03-06T08:07:44.934Z,67.47
2023-03-06T08:10:13.813Z,67.41
2023-03-06T08:12:40.082Z,66.72
2023-03-06T08:15:09.340Z,66.90
2023-03-06T08:17:35.632Z,67.05
2023-03-06T08:20:02.047Z,66.97
2023-03-06T08:22:28.332Z,67.56
2023-03-06T08:24:56.226Z,67.68
2023-03-06T08:27:22.596Z,67.41
2023-03-06T08:29:48.871Z,67.70
2023-03-06T08:32:15.277Z,67.20
2023-03-06T08:34:42.782Z,67.25
2023-03-06T08:37:09.184Z,67.24
2023-03-06T08:39:35.501Z,66.62
2023-03-06T08:42:01.782Z,66.25
2023-03-06T08:44:28.077Z,66.34
2023-03-06T08:46:54.387Z,65.67
2023-03-06T08:49:20.885Z,65.55
2023-03-06T08:51:47.274Z,65.32
2023-03-06T08:54:13.614Z,65.53
2023-03-06T08:56:40.028Z,65.47
2023-03-06T08:59:06.971Z,65.27
2023-03-06T09:01:36.509Z,65.42
2023-03-06T09:04:06.537Z,65.46
2023-03-06T09:06:35.925Z,64.38
2023-03-06T09:09:02.810Z,63.72
2023-03-06T09:11:29.244Z,63.18
2023-03-06T09:13:55.966Z,62.77
2023-03-06T09:16:23.114Z,62.87
2023-03-06T09:18:52.688Z,62.42
2023-03-06T09:21:20.602Z,62.02
2023-03-06T09:23:47.008Z,61.67
2023-03-06T09:26:13.430Z,62.91
2023-03-06T09:28:40.178Z,63.05
2023-03-06T09:31:16.168Z,61.47
2023-03-06T09:33:43.077Z,61.15
2023-03-06T09:36:15.532Z,61.29
2023-03-06T09:38:41.906Z,60.87
2023-03-06T09:43:43.067Z,59.84
2023-03-06T09:46:32.523Z,59.42
2023-03-06T09:49:23.788Z,59.82
2023-03-06T09:52:18.104Z,59.06
2023-03-06T09:55:11.474Z,59.39
2023-03-06T09:57:48.167Z,60.11
2023-03-06T10:00:19.464Z,59.68
2023-03-06T10:02:48.662Z,59.34
2023-03-06T10:05:31.789Z,58.36
2023-03-06T10:08:06.271Z,57.11
2023-03-06T10:10:43.806Z,56.61
2023-03-06T10:13:20.717Z,57.00
2023-03-06T10:15:49.654Z,57.93
2023-03-06T10:18:16.175Z,57.86
2023-03-06T10:20:53.459Z,57.32
2023-03-06T10:23:47.159Z,56.58
2023-03-06T10:26:19.201Z,56.04
2023-03-06T10:29:07.982Z,55.18
2023-03-06T10:31:35.159Z,54.10
2023-03-06T10:34:23.745Z,52.29
2023-03-06T10:36:50.661Z,50.50
2023-03-06T10:39:20.060Z,50.42
2023-03-06T10:41:48.057Z,51.01
2023-03-06T10:44:14.297Z,52.18
2023-03-06T10:46:43.130Z,52.79
2023-03-06T10:49:36.121Z,53.69
2023-03-06T10:52:21.046Z,54.19
2023-03-06T10:54:48.280Z,54.29
2023-03-06T10:57:29.404Z,54.38
2023-03-06T10:59:59.364Z,53.47
2023-03-06T11:02:37.230Z,54.37
2023-03-06T11:05:06.055Z,53.66
2023-03-06T11:07:34.352Z,54.22
2023-03-06T11:10:03.746Z,54.76
2023-03-06T11:12:38.977Z,55.35
2023-03-06T11:15:14.246Z,53.91
2023-03-06T11:18:00.931Z,52.23
2023-03-06T11:20:51.011Z,51.06
2023-03-06T11:23:57.564Z,51.70
2023-03-06T11:26:34.765Z,50.54
2023-03-06T11:29:34.615Z,47.91
2023-03-06T11:32:14.309Z,47.55
2023-03-06T11:34:57.604Z,46.25
2023-03-06T11:37:32.343Z,47.10
2023-03-06T11:40:17.566Z,46.66
2023-03-06T11:43:05.412Z,46.62
2023-03-06T11:45:54.221Z,46.43
2023-03-06T11:48:26.863Z,45.62
2023-03-06T11:50:59.130Z,45.57
2023-03-06T11:53:32.210Z,45.35
2023-03-06T11:56:14.387Z,45.08
2023-03-06T11:58:56.134Z,45.60
2023-03-06T12:01:34.530Z,44.80
2023-03-06T12:04:18.260Z,44.69
2023-03-06T12:06:47.297Z,44.41
2023-03-06T12:09:13.591Z,43.24
2023-03-06T12:11:58.688Z,42.49
2023-03-06T12:14:35.646Z,42.41
2023-03-06T12:17:13.429Z,42.75
2023-03-06T12:20:07.222Z,43.95
2023-03-06T12:22:57.740Z,45.17
2023-03-06T12:25:41.636Z,45.88
2023-03-06T12:28:33.863Z,46.27
2023-03-06T12:31:18.109Z,46.38
2023-03-06T12:34:11.988Z,46.40
2023-03-06T12:36:48.828Z,45.47
2023-03-06T12:39:25.630Z,45.07
2023-03-06T12:42:32.228Z,43.29
2023-03-06T12:45:27.707Z,42.94
2023-03-06T12:47:58.921Z,42.23
2023-03-06T12:50:33.963Z,39.83
2023-03-06T12:53:06.257Z,40.25
2023-03-06T12:55:40.604Z,39.88
2023-03-06T12:58:29.851Z,39.39
2023-03-06T13:01:27.138Z,36.60
2023-03-06T13:04:04.908Z,37.31
2023-03-06T13:07:02.302Z,38.20
2023-03-06T13:09:36.724Z,37.36
2023-03-06T13:12:19.265Z,37.53
2023-03-06T13:14:54.138Z,37.17
2023-03-06T13:17:25.763Z,38.10
2023-03-06T13:20:40.835Z,36.79
2023-03-06T13:23:29.013Z,38.96
2023-03-06T13:25:59.831Z,39.56
2023-03-06T13:28:40.645Z,38.30
2023-03-06T13:31:18.224Z,38.73
2023-03-06T13:33:58.534Z,39.28
2023-03-06T13:36:30.894Z,40.56
2023-03-06T13:39:02.047Z,41.91
2023-03-06T13:41:31.397Z,43.33
2023-03-06T13:44:00.462Z,42.96
2023-03-06T13:46:35.708Z,43.79
2023-03-06T13:49:07.911Z,43.67
2023-03-06T13:51:43.639Z,44.11
2023-03-06T13:54:40.311Z,45.99
2023-03-06T13:57:25.730Z,45.98
2023-03-06T14:00:16.844Z,46.63
2023-03-06T14:03:22.129Z,47.53
2023-03-06T14:05:50.540Z,47.79
2023-03-06T14:08:19.703Z,47.76
2023-03-06T14:10:48.950Z,48.67
2023-03-06T14:13:21.914Z,49.28
2023-03-06T14:15:51.095Z,50.27
2023-03-06T14:18:23.878Z,51.55
2023-03-06T14:21:05.831Z,51.94
2023-03-06T14:23:35.481Z,52.27
2023-03-06T14:26:22.272Z,52.24
2023-03-06T14:28:52.670Z,52.81
2023-03-06T14:31:22.279Z,52.64
2023-03-06T14:33:57.041Z,54.14
2023-03-06T14:36:28.716Z,53.87
2023-03-06T14:39:05.045Z,54.75
2023-03-06T14:41:34.756Z,55.76
2023-03-06T14:44:30.460Z,56.95
2023-03-06T14:47:17.480Z,60.50
2023-03-06T14:49:43.732Z,62.22
2023-03-06T14:52:20.807Z,61.68
2023-03-06T14:54:48.486Z,65.70
2023-03-06T14:57:20.317Z,66.42
2023-03-06T14:59:56.027Z,65.12
2023-03-06T15:02:25.614Z,63.04
2023-03-06T15:05:02.057Z,63.47
2023-03-06T15:07:32.474Z,64.34
2023-03-06T15:09:59.536Z,67.21
2023-03-06T15:12:33.864Z,68.07
2023-03-06T15:15:24.542Z,67.23
2023-03-06T15:17:50.857Z,64.95
2023-03-06T15:20:37.776Z,64.23
2023-03-06T15:23:15.281Z,64.45
2023-03-06T15:25:50.879Z,63.37
2023-03-06T15:28:27.911Z,63.40
2023-03-06T15:31:10.633Z,62.50
2023-03-06T15:33:37.489Z,62.27
2023-03-06T15:36:07.013Z,62.11
2023-03-06T15:38:43.417Z,63.31
2023-03-06T15:41:31.759Z,62.38
2023-03-06T15:44:00.169Z,61.14
2023-03-06T15:46:27.092Z,61.25
2023-03-06T15:48:55.972Z,61.04
2023-03-06T15:51:22.660Z,61.29
2023-03-06T15:53:49.350Z,60.91
2023-03-06T15:56:20.348Z,60.04
2023-03-06T15:58:46.704Z,60.26
2023-03-06T16:01:16.947Z,61.26
2023-03-06T16:03:44.998Z,61.54
2023-03-06T16:06:16.624Z,62.30
2023-03-06T16:08:43.185Z,62.97
2023-03-06T16:11:17.215Z,62.94
2023-03-06T16:13:44.709Z,62.98
2023-03-06T16:16:19.430Z,62.98
2023-03-06T16:18:46.231Z,63.18
2023-03-06T16:21:12.592Z,63.53
2023-03-06T16:23:39.980Z,62.96
2023-03-06T16:26:16.947Z,64.38
2023-03-06T16:28:45.118Z,63.98
2023-03-06T16:31:15.413Z,64.12
2023-03-06T16:33:41.970Z,63.69
2023-03-06T16:36:26.540Z,63.98
2023-03-06T16:38:53.277Z,64.48
2023-03-06T16:41:20.363Z,64.48
2023-03-06T16:43:47.505Z,65.55
2023-03-06T16:46:15.741Z,64.24
2023-03-06T16:48:42.105Z,64.27
2023-03-06T16:51:13.026Z,64.58
2023-03-06T16:53:39.327Z,64.26
2023-03-06T16:56:06.032Z,64.89
2023-03-06T16:58:32.416Z,64.65
2023-03-06T17:00:58.751Z,64.26
2023-03-06T17:03:25.428Z,64.18
2023-03-06T17:05:51.890Z,64.03
2023-03-06T17:08:18.189Z,64.31
2023-03-06T17:10:44.535Z,64.08
2023-03-06T17:13:10.974Z,64.47
2023-03-06T17:15:37.291Z,64.94
2023-03-06T17:18:03.908Z,64.64
2023-03-06T17:20:30.238Z,64.78
2023-03-06T17:22:56.584Z,64.22
2023-03-06T17:25:23.130Z,64.91
2023-03-06T17:27:49.509Z,64.70
2023-03-06T17:30:16.222Z,65.10
2023-03-06T17:32:42.580Z,64.98
2023-03-06T17:35:10.042Z,64.80
2023-03-06T17:37:36.570Z,64.43
2023-03-06T17:40:03.410Z,64.81
2023-03-06T17:42:29.690Z,64.89
2023-03-06T17:44:57.258Z,65.24
2023-03-06T17:47:23.518Z,64.99
2023-03-06T17:49:49.793Z,65.19
2023-03-06T17:52:16.090Z,65.05
2023-03-06T17:54:42.397Z,65.60
2023-03-06T17:57:08.732Z,65.52
2023-03-06T17:59:35.104Z,65.05
2023-03-06T18:02:01.872Z,65.11
2023-03-06T18:04:29.104Z,65.67
2023-03-06T18:06:56.875Z,65.68
2023-03-06T18:09:23.337Z,66.00
2023-03-06T18:11:49.665Z,66.08
2023-03-06T18:14:16.012Z,65.70
2023-03-06T18:16:42.387Z,65.64
2023-03-06T18:19:10.934Z,66.49
2023-03-06T18:21:39.130Z,66.35
2023-03-06T18:24:05.898Z,65.98
2023-03-06T18:26:32.268Z,65.63
2023-03-06T18:29:01.834Z,66.26
2023-03-06T18:31:38.981Z,66.14
2023-03-06T18:34:08.763Z,65.66
2023-03-06T18:36:35.705Z,65.64
2023-03-06T18:39:03.749Z,65.78
2023-03-06T18:41:31.078Z,65.89
2023-03-06T18:43:58.712Z,66.41
2023-03-06T18:46:28.898Z,65.53
2023-03-06T18:48:55.228Z,65.61
2023-03-06T18:51:21.680Z,65.39
2023-03-06T18:53:48.032Z,66.00
2023-03-06T18:56:17.266Z,65.14
2023-03-06T18:58:44.340Z,65.61
2023-03-06T19:01:11.686Z,64.89
2023-03-06T19:03:38.345Z,65.75
2023-03-06T19:06:07.441Z,65.47
2023-03-06T19:08:35.248Z,65.59
2023-03-06T19:11:06.930Z,65.85
2023-03-06T19:13:33.378Z,64.93
2023-03-06T19:15:59.997Z,64.87
2023-03-06T19:18:27.814Z,64.87
2023-03-06T19:20:54.557Z,64.49
2023-03-06T19:23:21.972Z,64.39
2023-03-06T19:25:59.057Z,64.16
2023-03-06T19:28:26.123Z,64.36
2023-03-06T19:30:52.748Z,64.94
2023-03-06T19:33:19.660Z,64.61
2023-03-06T19:35:46.487Z,64.61
2023-03-06T19:38:13.892Z,65.34
2023-03-06T19:40:40.201Z,65.45
2023-03-06T19:43:06.478Z,65.70
2023-03-06T19:45:32.854Z,65.94
2023-03-06T19:48:00.825Z,65.72
2023-03-06T19:50:30.858Z,65.71
2023-03-06T19:52:57.560Z,65.72
2023-03-06T19:55:26.189Z,65.98
2023-03-06T19:57:53.633Z,65.99
2023-03-06T20:00:20.759Z,66.46
2023-03-06T20:02:47.040Z,67.13
2023-03-06T20:05:13.402Z,66.12
2023-03-06T20:07:39.682Z,66.07
2023-03-06T20:10:07.081Z,65.55
2023-03-06T20:12:33.561Z,65.83
2023-03-06T20:14:59.978Z,66.32
2023-03-06T20:17:26.261Z,65.49
2023-03-06T20:19:52.726Z,65.53
2023-03-06T20:22:19.314Z,65.85
2023-03-06T20:24:45.873Z,65.95
2023-03-06T20:27:12.250Z,65.94
2023-03-06T20:29:43.167Z,66.62
2023-03-06T20:32:09.499Z,66.62
2023-03-06T20:34:38.852Z,66.78
2023-03-06T20:37:06.374Z,66.32
2023-03-06T20:39:32.706Z,66.77
2023-03-06T20:41:59.961Z,67.26
2023-03-06T20:44:27.272Z,67.11
2023-03-06T20:46:53.663Z,67.59
2023-03-06T20:49:19.963Z,67.75
2023-03-06T20:51:46.291Z,68.22
2023-03-06T20:54:14.947Z,67.45
2023-03-06T20:56:44.567Z,67.91
2023-03-06T20:59:12.239Z,68.08
2023-03-06T21:01:41.732Z,68.07
2023-03-06T21:04:10.140Z,67.75
2023-03-06T21:06:37.676Z,67.91
2023-03-06T21:09:05.260Z,67.16
2023-03-06T21:11:32.060Z,67.86
2023-03-06T21:13:58.363Z,67.37
2023-03-06T21:16:25.879Z,67.63
2023-03-06T21:18:58.963Z,68.03
2023-03-06T21:27:34.808Z,68.43
2023-03-06T21:30:01.122Z,68.35
2023-03-06T21:32:27.475Z,68.48
2023-03-06T21:34:53.738Z,68.44
2023-03-06T21:37:20.015Z,68.86
2023-03-06T21:39:48.679Z,69.10
2023-03-06T21:42:15.000Z,69.40
2023-03-06T21:44:41.390Z,69.65
2023-03-06T21:47:09.454Z,68.84
2023-03-06T21:49:35.844Z,68.89
2023-03-06T21:52:02.141Z,69.49
2023-03-06T21:54:29.197Z,69.39
2023-03-06T21:56:55.695Z,68.79
2023-03-06T21:59:21.985Z,68.90
2023-03-06T22:01:48.350Z,69.39
2023-03-06T22:04:14.715Z,69.41
2023-03-06T22:06:41.280Z,69.70
2023-03-06T22:09:07.769Z,69.21
2023-03-06T22:11:37.269Z,69.19
2023-03-06T22:14:04.941Z,69.45
2023-03-06T22:16:31.647Z,69.13
2023-03-06T22:18:58.974Z,69.15
2023-03-06T22:21:25.317Z,69.75
2023-03-06T22:23:54.441Z,69.43
2023-03-06T22:26:21.127Z,69.68
2023-03-06T22:28:47.482Z,70.09
2023-03-06T22:31:18.730Z,69.50
2023-03-06T22:33:45.438Z,69.45
2023-03-06T22:36:14.884Z,69.89
2023-03-06T22:38:43.724Z,69.54
2023-03-06T22:41:15.068Z,69.18
2023-03-06T22:43:41.777Z,69.39
2023-03-06T22:46:14.282Z,69.15
2023-03-06T22:48:41.094Z,69.34
2023-03-06T22:51:11.885Z,69.37
2023-03-06T22:53:38.863Z,68.84
2023-03-06T22:56:07.808Z,68.07
2023-03-06T22:58:37.058Z,68.79
2023-03-06T23:01:06.065Z,68.08
2023-03-06T23:03:32.432Z,67.75
2023-03-06T23:05:58.688Z,68.03
2023-03-06T23:08:24.981Z,68.04
2023-03-06T23:10:51.334Z,67.09
2023-03-06T23:13:17.619Z,67.43
2023-03-06T23:15:43.976Z,67.05
2023-03-06T23:18:10.374Z,67.35
2023-03-06T23:20:41.821Z,67.49
2023-03-06T23:23:08.085Z,67.68
2023-03-06T23:25:34.701Z,67.32
2023-03-06T23:28:01.727Z,67.20
2023-03-06T23:30:28.041Z,67.24
2023-03-06T23:32:54.326Z,67.97
2023-03-06T23:35:20.743Z,68.10
2023-03-06T23:37:47.072Z,67.89
2023-03-06T23:40:13.814Z,67.95
2023-03-06T23:42:40.282Z,67.76
2023-03-06T23:45:07.322Z,67.01
2023-03-06T23:47:33.919Z,67.28
2023-03-06T23:50:00.249Z,67.11
2023-03-06T23:52:26.668Z,66.83
2023-03-06T23:54:52.954Z,67.46
2023-03-06T23:57:19.347Z,67.01
2023-03-06T23:59:46.010Z,67.30
